createdAt,value
2023-03-15T00:00:55.361Z,90.37
2023-03-15T00:03:24.560Z,90.97
2023-03-15T00:05:52.448Z,90.69
2023-03-15T00:08:19.336Z,90.16
2023-03-15T00:10:47.813Z,90.40
2023-03-15T00:13:15.593Z,90.24
2023-03-15T00:16:02.985Z,90.62
2023-03-15T00:18:29.867Z,89.58
2023-03-15T00:20:56.353Z,90.23
2023-03-15T00:23:22.873Z,90.53
2023-03-15T00:25:50.992Z,91.05
2023-03-15T00:28:17.950Z,90.52
2023-03-15T00:30:45.945Z,91.08
2023-03-15T00:33:13.889Z,91.19
2023-03-15T00:35:42.224Z,91.47
2023-03-15T00:38:09.162Z,91.80
2023-03-15T00:40:37.119Z,91.58
2023-03-15T00:43:03.767Z,91.73
2023-03-15T00:45:30.405Z,92.04
2023-03-15T00:47:57.081Z,91.80
2023-03-15T00:50:23.719Z,92.02
2023-03-15T00:52:50.498Z,92.29
2023-03-15T00:55:18.899Z,91.87
2023-03-15T00:57:46.368Z,92.29
2023-03-15T01:00:24.541Z,92.42
2023-03-15T01:02:54.937Z,92.18
2023-03-15T01:05:21.686Z,92.76
2023-03-15T01:07:48.973Z,93.11
2023-03-15T01:10:16.283Z,92.76
2023-03-15T01:12:42.835Z,93.08
2023-03-15T01:15:12.226Z,93.08
2023-03-15T01:17:39.069Z,92.54
2023-03-15T01:20:06.588Z,93.13
2023-03-15T01:22:33.161Z,93.00
2023-03-15T01:24:59.732Z,92.60
2023-03-15T01:27:26.278Z,92.75
2023-03-15T01:29:52.880Z,92.99
2023-03-15T01:32:19.413Z,93.52
2023-03-15T01:34:46.156Z,93.35
2023-03-15T01:37:14.585Z,93.68
2023-03-15T01:39:42.552Z,93.33
2023-03-15T01:42:10.062Z,93.73
2023-03-15T01:45:32.278Z,94.18
2023-03-15T01:47:58.887Z,93.66
2023-03-15T01:50:25.484Z,93.82
2023-03-15T01:52:52.031Z,93.62
2023-03-15T01:55:19.887Z,94.07
2023-03-15T01:57:57.283Z,93.29
2023-03-15T02:00:24.333Z,94.19
2023-03-15T02:02:54.410Z,93.80
2023-03-15T02:05:24.509Z,94.20
2023-03-15T02:07:54.544Z,93.49
2023-03-15T02:10:27.748Z,93.81
2023-03-15T02:12:55.834Z,93.46
2023-03-15T02:15:22.367Z,93.93
2023-03-15T02:17:49.226Z,93.66
2023-03-15T02:20:27.288Z,93.36
2023-03-15T02:23:14.763Z,93.12
2023-03-15T02:25:53.628Z,93.74
2023-03-15T02:28:20.572Z,93.07
2023-03-15T02:30:47.650Z,92.19
2023-03-15T02:33:30.519Z,92.09
2023-03-15T02:36:08.015Z,91.74
2023-03-15T02:38:34.532Z,91.55
2023-03-15T02:41:01.288Z,90.82
2023-03-15T02:43:30.597Z,90.78
2023-03-15T02:45:57.197Z,90.59
2023-03-15T02:48:23.788Z,90.75
2023-03-15T02:50:50.384Z,89.64
2023-03-15T02:53:16.962Z,89.96
2023-03-15T02:55:43.504Z,89.56
2023-03-15T02:58:10.323Z,88.88
2023-03-15T03:00:37.081Z,89.23
2023-03-15T03:03:03.725Z,89.23
2023-03-15T03:05:30.212Z,88.89
2023-03-15T03:07:56.876Z,88.41
2023-03-15T03:10:23.388Z,88.44
2023-03-15T03:12:53.525Z,88.50
2023-03-15T03:15:20.723Z,88.97
2023-03-15T03:17:47.419Z,88.65
2023-03-15T03:20:15.181Z,88.59
2023-03-15T03:22:44.795Z,88.75
2023-03-15T03:25:12.131Z,88.58
2023-03-15T03:27:40.221Z,88.39
2023-03-15T03:30:08.844Z,88.58
2023-03-15T03:32:35.731Z,88.54
2023-03-15T03:35:02.418Z,89.29
2023-03-15T03:37:30.931Z,89.20
2023-03-15T03:39:58.326Z,89.11
2023-03-15T03:42:25.350Z,89.93
2023-03-15T03:44:54.023Z,89.19
2023-03-15T03:47:20.928Z,89.98
2023-03-15T03:49:47.455Z,89.69
2023-03-15T03:52:14.105Z,90.19
2023-03-15T03:54:42.748Z,90.93
2023-03-15T03:57:10.585Z,91.00
2023-03-15T03:59:37.139Z,91.11
2023-03-15T04:02:03.734Z,91.18
2023-03-15T04:04:30.267Z,91.59
2023-03-15T04:06:57.013Z,91.77
2023-03-15T04:09:25.107Z,91.79
2023-03-15T04:11:51.810Z,91.49
2023-03-15T04:14:18.444Z,91.73
2023-03-15T04:16:45.014Z,91.52
2023-03-15T04:19:12.897Z,91.75
2023-03-15T04:21:39.496Z,91.40
2023-03-15T04:24:06.172Z,91.49
2023-03-15T04:26:34.639Z,91.30
2023-03-15T04:29:01.300Z,91.24
2023-03-15T04:31:27.972Z,91.03
2023-03-15T04:33:55.197Z,91.05
2023-03-15T04:36:24.471Z,90.27
2023-03-15T04:38:51.038Z,90.74
2023-03-15T04:41:18.405Z,90.04
2023-03-15T04:43:45.137Z,89.63
2023-03-15T04:46:11.679Z,89.60
2023-03-15T04:48:38.207Z,90.89
2023-03-15T04:51:04.883Z,91.50
2023-03-15T04:53:31.575Z,91.63
2023-03-15T04:55:58.069Z,91.46
2023-03-15T04:58:24.608Z,92.64
2023-03-15T05:00:53.267Z,93.18
2023-03-15T05:03:19.865Z,92.87
2023-03-15T05:05:46.467Z,93.19
2023-03-15T05:08:13.098Z,93.37
2023-03-15T05:10:39.717Z,93.45
2023-03-15T05:13:06.412Z,93.43
2023-03-15T05:15:33.083Z,93.78
2023-03-15T05:17:59.728Z,93.73
2023-03-15T05:20:26.318Z,94.01
2023-03-15T05:22:55.452Z,93.80
2023-03-15T05:25:22.144Z,94.04
2023-03-15T05:27:48.809Z,93.58
2023-03-15T05:30:18.167Z,94.07
2023-03-15T05:32:44.889Z,94.14
2023-03-15T05:35:12.706Z,94.25
2023-03-15T05:37:39.609Z,94.78
2023-03-15T05:40:10.308Z,94.50
2023-03-15T05:42:37.018Z,94.94
2023-03-15T05:45:03.662Z,94.82
2023-03-15T05:47:30.636Z,94.76
2023-03-15T05:49:58.027Z,94.44
2023-03-15T05:52:24.591Z,94.43
2023-03-15T05:54:51.169Z,95.19
2023-03-15T05:57:17.709Z,95.23
2023-03-15T05:59:44.195Z,95.55
2023-03-15T06:02:10.732Z,95.25
2023-03-15T06:04:38.107Z,95.59
2023-03-15T06:07:04.967Z,95.47
2023-03-15T06:09:31.704Z,95.91
2023-03-15T06:11:59.095Z,95.78
2023-03-15T06:14:27.240Z,95.79
2023-03-15T06:16:53.972Z,96.07
2023-03-15T06:19:21.354Z,95.82
2023-03-15T06:21:48.194Z,95.84
2023-03-15T06:24:14.718Z,96.27
2023-03-15T06:26:41.380Z,95.90
2023-03-15T06:29:08.102Z,96.15
2023-03-15T06:31:34.637Z,96.27
2023-03-15T06:34:01.632Z,97.04
2023-03-15T06:36:28.219Z,96.60
2023-03-15T06:38:54.757Z,96.62
2023-03-15T06:41:21.511Z,96.97
2023-03-15T06:43:48.081Z,96.30
2023-03-15T06:46:14.655Z,96.93
2023-03-15T06:48:41.504Z,96.85
2023-03-15T06:51:08.002Z,96.66
2023-03-15T06:53:34.750Z,97.00
2023-03-15T06:56:01.359Z,96.80
2023-03-15T06:58:27.903Z,97.37
2023-03-15T07:00:54.597Z,97.30
2023-03-15T07:03:22.399Z,97.19
2023-03-15T07:05:52.494Z,97.04
2023-03-15T07:08:19.652Z,97.13
2023-03-15T07:10:46.729Z,96.69
2023-03-15T07:13:13.585Z,97.05
2023-03-15T07:15:40.251Z,97.68
2023-03-15T07:18:07.100Z,97.01
2023-03-15T07:20:36.229Z,97.14
2023-03-15T07:23:03.976Z,97.39
2023-03-15T07:25:30.548Z,96.94
2023-03-15T07:27:57.077Z,97.32
2023-03-15T07:30:23.574Z,96.70
2023-03-15T07:32:50.233Z,96.34
2023-03-15T07:35:18.166Z,96.04
2023-03-15T07:37:45.090Z,96.10
2023-03-15T07:40:12.888Z,95.73
2023-03-15T07:42:43.184Z,95.30
2023-03-15T07:45:10.216Z,95.60
2023-03-15T07:47:37.928Z,95.36
2023-03-15T07:50:05.866Z,91.91
2023-03-15T07:52:32.760Z,88.88
2023-03-15T07:54:59.297Z,89.87
2023-03-15T07:57:28.738Z,88.81
2023-03-15T07:59:56.092Z,85.62
2023-03-15T08:02:22.707Z,85.55
2023-03-15T08:04:51.087Z,84.85
2023-03-15T08:07:17.742Z,83.08
2023-03-15T08:09:44.506Z,82.58
2023-03-15T08:12:11.357Z,82.33
2023-03-15T08:14:37.936Z,80.78
2023-03-15T08:17:04.632Z,82.13
2023-03-15T08:19:31.145Z,81.18
2023-03-15T08:21:57.681Z,72.61
2023-03-15T08:24:24.293Z,70.93
2023-03-15T08:26:51.353Z,64.92
2023-03-15T08:29:18.050Z,65.44
2023-03-15T08:31:44.665Z,63.15
2023-03-15T08:34:12.146Z,65.33
2023-03-15T08:36:38.772Z,63.40
2023-03-15T08:39:06.094Z,62.00
2023-03-15T08:41:32.816Z,59.95
2023-03-15T08:43:59.489Z,61.38
2023-03-15T08:46:27.160Z,57.88
2023-03-15T08:48:53.772Z,57.32
2023-03-15T08:51:21.718Z,56.02
2023-03-15T08:53:48.556Z,58.26
2023-03-15T08:56:15.228Z,57.89
2023-03-15T08:58:41.915Z,55.72
2023-03-15T09:01:11.790Z,54.91
2023-03-15T09:03:38.577Z,55.58
2023-03-15T09:06:05.997Z,57.29
2023-03-15T09:08:33.405Z,55.85
2023-03-15T09:11:01.466Z,53.23
2023-03-15T09:13:28.307Z,54.70
2023-03-15T09:15:56.107Z,53.59
2023-03-15T09:18:23.106Z,51.76
2023-03-15T09:20:49.689Z,48.22
2023-03-15T09:23:16.224Z,47.79
2023-03-15T09:25:42.743Z,47.73
2023-03-15T09:28:11.466Z,45.69
2023-03-15T09:30:39.525Z,47.65
2023-03-15T09:33:06.520Z,48.64
2023-03-15T09:35:33.298Z,46.02
2023-03-15T09:38:00.649Z,48.53
2023-03-15T09:40:49.282Z,44.77
2023-03-15T09:43:49.667Z,49.20
2023-03-15T09:46:58.744Z,48.33
2023-03-15T09:49:45.996Z,45.48
2023-03-15T09:52:33.881Z,50.70
2023-03-15T09:55:17.424Z,46.58
2023-03-15T09:57:50.549Z,46.72
2023-03-15T10:00:37.770Z,49.06
2023-03-15T10:03:07.279Z,51.65
2023-03-15T10:05:39.207Z,50.66
2023-03-15T10:08:13.360Z,51.17
2023-03-15T10:10:50.213Z,49.56
2023-03-15T10:13:24.852Z,46.95
2023-03-15T10:15:58.097Z,45.33
2023-03-15T10:18:45.502Z,43.46
2023-03-15T10:21:12.992Z,41.36
2023-03-15T10:23:42.525Z,41.80
2023-03-15T10:26:13.318Z,40.70
2023-03-15T10:28:40.836Z,41.91
2023-03-15T10:31:36.781Z,42.92
2023-03-15T10:34:09.319Z,41.52
2023-03-15T10:36:35.961Z,42.72
2023-03-15T10:39:04.064Z,42.83
2023-03-15T10:41:38.878Z,45.83
2023-03-15T10:44:08.236Z,41.84
2023-03-15T10:46:35.647Z,40.95
2023-03-15T10:49:12.881Z,41.75
2023-03-15T10:51:44.751Z,39.40
2023-03-15T10:54:22.848Z,41.20
2023-03-15T10:57:03.527Z,41.73
2023-03-15T10:59:32.996Z,41.86
2023-03-15T11:02:11.764Z,39.89
2023-03-15T11:05:01.035Z,40.51
2023-03-15T11:07:28.186Z,41.55
2023-03-15T11:09:59.966Z,40.98
2023-03-15T11:12:27.788Z,43.14
2023-03-15T11:15:02.496Z,43.51
2023-03-15T11:17:32.890Z,46.54
2023-03-15T11:20:16.053Z,49.79
2023-03-15T11:22:43.179Z,48.63
2023-03-15T11:25:14.646Z,48.86
2023-03-15T11:27:43.399Z,48.91
2023-03-15T11:30:14.717Z,51.84
2023-03-15T11:32:42.139Z,51.12
2023-03-15T11:35:14.246Z,51.98
2023-03-15T11:38:15.603Z,47.99
2023-03-15T11:40:49.085Z,47.49
2023-03-15T11:43:23.205Z,46.06
2023-03-15T11:46:27.607Z,45.72
2023-03-15T11:49:04.773Z,45.07
2023-03-15T11:51:36.456Z,42.57
2023-03-15T11:54:18.592Z,41.15
2023-03-15T11:56:48.491Z,42.96
2023-03-15T11:59:18.393Z,43.25
2023-03-15T12:01:57.844Z,43.30
2023-03-15T12:04:24.425Z,43.65
2023-03-15T12:06:55.277Z,43.73
2023-03-15T12:09:36.264Z,43.82
2023-03-15T12:12:04.751Z,41.94
2023-03-15T12:14:36.637Z,43.38
2023-03-15T12:17:26.961Z,45.49
2023-03-15T12:19:59.937Z,43.93
2023-03-15T12:22:31.200Z,44.84
2023-03-15T12:24:59.409Z,42.11
2023-03-15T12:27:28.452Z,43.01
2023-03-15T12:30:00.382Z,42.38
2023-03-15T12:32:28.076Z,43.04
2023-03-15T12:34:56.654Z,40.20
2023-03-15T12:37:44.826Z,40.51
2023-03-15T12:40:20.625Z,40.03
2023-03-15T12:42:47.156Z,40.42
2023-03-15T12:45:17.178Z,43.63
2023-03-15T12:48:06.593Z,44.09
2023-03-15T12:50:36.306Z,42.55
2023-03-15T12:53:05.583Z,43.83
2023-03-15T12:55:33.366Z,44.92
2023-03-15T12:58:00.822Z,42.91
2023-03-15T13:00:30.665Z,40.55
2023-03-15T13:03:11.412Z,42.07
2023-03-15T13:06:03.839Z,43.07
2023-03-15T13:08:41.575Z,44.92
2023-03-15T13:11:29.155Z,43.55
2023-03-15T13:13:55.532Z,44.28
2023-03-15T13:16:26.482Z,42.83
2023-03-15T13:19:24.981Z,43.79
2023-03-15T13:22:14.775Z,46.37
2023-03-15T13:25:08.345Z,46.45
2023-03-15T13:27:53.302Z,45.85
2023-03-15T13:30:32.659Z,44.88
2023-03-15T13:33:24.721Z,45.57
2023-03-15T13:35:56.122Z,44.72
2023-03-15T13:38:45.500Z,44.65
2023-03-15T13:41:26.645Z,46.64
2023-03-15T13:43:55.488Z,46.21
2023-03-15T13:46:23.999Z,47.21
2023-03-15T13:48:52.232Z,48.18
2023-03-15T13:51:28.159Z,49.25
2023-03-15T13:53:57.432Z,50.87
2023-03-15T13:56:47.032Z,48.63
2023-03-15T13:59:16.006Z,48.18
2023-03-15T14:01:43.048Z,47.01
2023-03-15T14:04:14.349Z,45.83
2023-03-15T14:06:40.903Z,45.13
2023-03-15T14:09:11.692Z,44.21
2023-03-15T14:11:40.675Z,41.53
2023-03-15T14:14:23.321Z,43.09
2023-03-15T14:17:04.166Z,41.73
2023-03-15T14:19:34.071Z,42.04
2023-03-15T14:22:05.416Z,40.92
2023-03-15T14:24:43.027Z,42.95
2023-03-15T14:27:16.503Z,42.92
2023-03-15T14:29:48.830Z,42.74
2023-03-15T14:32:34.086Z,44.39
2023-03-15T14:35:08.098Z,44.31
2023-03-15T14:37:42.791Z,41.94
2023-03-15T14:40:23.232Z,41.57
2023-03-15T14:42:50.384Z,43.46
2023-03-15T14:45:17.969Z,43.91
2023-03-15T14:47:56.822Z,44.48
2023-03-15T14:50:30.845Z,44.41
2023-03-15T14:52:59.332Z,44.80
2023-03-15T14:55:31.206Z,45.96
2023-03-15T14:57:57.692Z,45.96
2023-03-15T15:00:24.824Z,45.94
2023-03-15T15:02:52.734Z,44.57
2023-03-15T15:05:31.089Z,41.36
2023-03-15T15:08:22.437Z,44.90
2023-03-15T15:10:51.351Z,42.81
2023-03-15T15:13:23.257Z,42.92
2023-03-15T15:15:55.726Z,44.04
2023-03-15T15:18:25.245Z,42.00
2023-03-15T15:20:55.540Z,40.96
2023-03-15T15:23:25.953Z,41.90
2023-03-15T15:25:56.414Z,43.75
2023-03-15T15:28:33.816Z,45.39
2023-03-15T15:31:01.085Z,45.67
2023-03-15T15:33:27.650Z,45.44
2023-03-15T15:35:56.223Z,44.36
2023-03-15T15:38:25.445Z,44.80
2023-03-15T15:40:52.260Z,45.12
2023-03-15T15:43:19.041Z,43.78
2023-03-15T15:45:45.610Z,44.14
2023-03-15T15:48:12.142Z,43.72
2023-03-15T15:50:38.700Z,44.61
2023-03-15T15:53:06.449Z,44.37
2023-03-15T15:55:35.883Z,44.73
2023-03-15T15:58:03.702Z,46.04
2023-03-15T16:00:30.286Z,45.80
2023-03-15T16:02:57.957Z,44.85
2023-03-15T16:05:26.711Z,45.09
2023-03-15T16:07:53.940Z,46.74
2023-03-15T16:10:23.876Z,47.54
2023-03-15T16:12:52.191Z,48.74
2023-03-15T16:15:18.817Z,49.77
2023-03-15T16:17:45.927Z,49.10
2023-03-15T16:20:14.316Z,50.89
2023-03-15T16:22:43.512Z,52.51
2023-03-15T16:25:13.859Z,52.34
2023-03-15T16:27:40.923Z,52.64
2023-03-15T16:30:09.422Z,51.57
2023-03-15T16:32:44.180Z,52.16
2023-03-15T16:35:15.645Z,52.79
2023-03-15T16:37:43.255Z,53.19
2023-03-15T16:40:17.008Z,52.41
2023-03-15T16:42:43.545Z,53.24
2023-03-15T16:45:14.075Z,53.23
2023-03-15T16:47:40.883Z,54.29
2023-03-15T16:50:07.664Z,54.31
2023-03-15T16:52:34.369Z,54.79
2023-03-15T16:55:01.275Z,54.63
2023-03-15T16:57:27.944Z,53.78
2023-03-15T16:59:54.462Z,54.81
2023-03-15T17:02:26.194Z,54.69
2023-03-15T17:04:53.018Z,54.80
2023-03-15T17:07:24.597Z,55.47
2023-03-15T17:09:51.646Z,55.72
2023-03-15T17:12:28.984Z,55.67
2023-03-15T17:14:58.740Z,56.59
2023-03-15T17:17:33.130Z,56.45
2023-03-15T17:20:00.230Z,56.26
2023-03-15T17:22:26.763Z,56.56
2023-03-15T17:24:54.456Z,56.19
2023-03-15T17:27:26.652Z,56.20
2023-03-15T17:29:53.332Z,56.17
2023-03-15T17:32:20.056Z,56.58
2023-03-15T17:34:47.627Z,56.71
2023-03-15T17:37:15.355Z,56.54
2023-03-15T17:39:42.682Z,56.57
2023-03-15T17:42:12.709Z,56.70
2023-03-15T17:44:39.517Z,57.05
2023-03-15T17:47:09.132Z,56.89
2023-03-15T17:49:36.181Z,55.99
2023-03-15T17:52:04.363Z,55.65
2023-03-15T17:54:31.195Z,55.47
2023-03-15T17:56:59.669Z,55.30
2023-03-15T17:59:26.621Z,54.67
2023-03-15T18:01:53.779Z,54.02
2023-03-15T18:04:20.915Z,53.89
2023-03-15T18:06:48.092Z,53.83
2023-03-15T18:09:18.038Z,53.17
2023-03-15T18:11:46.495Z,52.84
2023-03-15T18:14:15.106Z,52.22
2023-03-15T18:16:43.248Z,51.91
2023-03-15T18:19:10.582Z,51.90
2023-03-15T18:21:37.926Z,51.61
2023-03-15T18:24:05.170Z,51.41
2023-03-15T18:26:31.734Z,50.87
2023-03-15T18:28:58.526Z,50.88
2023-03-15T18:31:26.144Z,51.63
2023-03-15T18:33:53.630Z,50.96
2023-03-15T18:36:20.643Z,51.28
2023-03-15T18:38:47.310Z,51.92
2023-03-15T18:41:20.350Z,51.31
2023-03-15T18:43:51.540Z,51.33
2023-03-15T18:46:27.010Z,51.15
2023-03-15T18:48:54.071Z,51.12
2023-03-15T18:51:23.188Z,51.76
2023-03-15T18:53:49.943Z,51.42
2023-03-15T18:56:22.241Z,52.13
2023-03-15T18:58:49.859Z,51.37
2023-03-15T19:01:18.012Z,51.90
2023-03-15T19:03:45.038Z,52.16
2023-03-15T19:06:13.406Z,53.04
2023-03-15T19:08:40.565Z,53.44
2023-03-15T19:11:08.505Z,54.13
2023-03-15T19:13:35.361Z,53.98
2023-03-15T19:16:02.063Z,54.14
2023-03-15T19:18:28.661Z,54.05
2023-03-15T19:20:55.223Z,54.35
2023-03-15T19:23:21.803Z,54.26
2023-03-15T19:25:48.592Z,54.40
2023-03-15T19:28:15.276Z,53.44
2023-03-15T19:30:42.389Z,54.24
2023-03-15T19:33:09.206Z,53.21
2023-03-15T19:35:36.204Z,53.37
2023-03-15T19:38:02.921Z,52.84
2023-03-15T19:40:29.753Z,53.11
2023-03-15T19:42:56.440Z,52.61
2023-03-15T19:45:23.429Z,52.90
2023-03-15T19:47:50.267Z,53.36
2023-03-15T19:50:16.985Z,53.25
2023-03-15T19:52:46.324Z,53.92
2023-03-15T19:55:18.341Z,53.84
2023-03-15T19:57:45.036Z,53.88
2023-03-15T20:00:14.313Z,54.88
2023-03-15T20:02:41.654Z,54.84
2023-03-15T20:05:09.773Z,55.26
2023-03-15T20:07:37.288Z,55.39
2023-03-15T20:10:05.336Z,55.09
2023-03-15T20:12:32.647Z,55.10
2023-03-15T20:14:59.250Z,54.66
2023-03-15T20:17:27.467Z,54.69
2023-03-15T20:19:54.399Z,54.91
2023-03-15T20:22:21.130Z,54.96
2023-03-15T20:24:48.001Z,54.77
2023-03-15T20:27:14.535Z,54.88
2023-03-15T20:29:41.025Z,54.90
2023-03-15T20:32:07.602Z,55.09
2023-03-15T20:34:34.192Z,54.97
2023-03-15T20:37:01.899Z,55.16
2023-03-15T20:39:28.653Z,55.42
2023-03-15T20:41:55.184Z,55.81
2023-03-15T20:44:21.725Z,55.37
2023-03-15T20:46:48.404Z,55.27
2023-03-15T20:49:15.537Z,55.18
2023-03-15T20:51:42.059Z,54.80
2023-03-15T20:54:08.648Z,54.20
2023-03-15T20:56:38.350Z,54.28
2023-03-15T20:59:08.092Z,55.01
2023-03-15T21:01:35.200Z,55.20
2023-03-15T21:04:02.218Z,54.99
2023-03-15T21:06:29.354Z,55.81
2023-03-15T21:08:56.309Z,56.13
2023-03-15T21:11:23.408Z,55.66
2023-03-15T21:13:50.350Z,56.50
2023-03-15T21:16:17.389Z,56.43
2023-03-15T21:18:45.220Z,56.72
2023-03-15T21:21:12.381Z,56.72
2023-03-15T21:23:39.501Z,57.07
2023-03-15T21:26:09.762Z,56.27
2023-03-15T21:28:37.676Z,56.32
2023-03-15T21:31:05.848Z,57.35
2023-03-15T21:33:33.310Z,57.14
2023-03-15T21:36:00.670Z,57.28
2023-03-15T21:38:29.121Z,57.25
2023-03-15T21:40:59.670Z,57.79
2023-03-15T21:43:26.688Z,58.21
2023-03-15T21:45:53.741Z,58.62
2023-03-15T21:48:21.098Z,58.94
2023-03-15T21:50:49.519Z,59.28
2023-03-15T21:53:16.073Z,59.25
2023-03-15T21:55:46.126Z,59.28
2023-03-15T21:58:12.660Z,58.46
2023-03-15T22:00:39.214Z,59.43
2023-03-15T22:03:06.022Z,59.77
2023-03-15T22:05:35.609Z,59.73
2023-03-15T22:08:02.445Z,60.29
2023-03-15T22:10:28.975Z,60.29
2023-03-15T22:12:55.495Z,60.26
2023-03-15T22:15:22.148Z,60.36
2023-03-15T22:17:48.687Z,60.82
2023-03-15T22:20:16.692Z,60.72
2023-03-15T22:22:47.309Z,60.69
2023-03-15T22:25:14.290Z,60.64
2023-03-15T22:27:41.902Z,60.92
2023-03-15T22:30:09.912Z,61.36
2023-03-15T22:32:36.481Z,61.44
2023-03-15T22:35:04.131Z,61.65
2023-03-15T22:37:33.971Z,61.50
2023-03-15T22:40:00.685Z,61.33
2023-03-15T22:42:27.222Z,61.30
2023-03-15T22:44:53.755Z,61.31
2023-03-15T22:47:20.391Z,61.30
2023-03-15T22:49:46.940Z,61.19
2023-03-15T22:52:13.648Z,61.61
2023-03-15T22:54:43.513Z,61.88
2023-03-15T22:57:11.390Z,61.59
2023-03-15T22:59:38.910Z,61.96
2023-03-15T23:02:05.864Z,61.44
2023-03-15T23:04:32.432Z,60.88
2023-03-15T23:06:59.008Z,61.28
2023-03-15T23:09:25.599Z,62.12
2023-03-15T23:11:52.092Z,61.48
2023-03-15T23:14:18.806Z,61.10
2023-03-15T23:16:45.330Z,61.58
2023-03-15T23:19:13.577Z,61.38
2023-03-15T23:21:40.099Z,61.52
2023-03-15T23:24:07.834Z,61.83
2023-03-15T23:26:37.371Z,61.76
2023-03-15T23:29:10.640Z,62.16
2023-03-15T23:31:41.188Z,62.42
2023-03-15T23:34:08.291Z,61.96
2023-03-15T23:36:35.368Z,61.96
2023-03-15T23:39:01.966Z,61.86
2023-03-15T23:41:29.195Z,61.94
2023-03-15T23:43:55.738Z,61.51
2023-03-15T23:46:24.324Z,61.62
2023-03-15T23:48:52.313Z,61.63
2023-03-15T23:51:19.388Z,61.61
2023-03-15T23:53:46.075Z,61.78
2023-03-15T23:56:12.787Z,61.89
2023-03-15T23:58:39.566Z,61.84
